Time;durP1;ratioP1;P1;durP2;ratioP2;P2;SDS_P1;SDS_P2;PMS_P1;PMS_P2;Temp;Humidity;BMP_temperature;BMP_pressure;BME280_temperature;BME280_humidity;BME280_pressure;Samples;Min_cycle;Max_cycle;Signal;HPM_P1;HPM_P2
2021/06/15 00:01:55;;;;;;;5.80;3.30;;;;;;;11.13;75.01;100789.95;102138;1118;66890;-66
2021/06/15 00:04:03;;;;;;;5.60;3.40;;;;;;;11.11;75.00;100781.20;102160;1118;68923;-65
2021/06/15 00:06:10;;;;;;;3.90;2.70;;;;;;;11.10;75.21;100782.21;102142;1118;85873;-64
2021/06/15 00:08:18;;;;;;;8.20;2.90;;;;;;;11.06;75.30;100789.02;102162;1118;74341;-65
2021/06/15 00:10:27;;;;;;;5.40;3.40;;;;;;;11.00;75.45;100790.59;102133;1118;80062;-65
2021/06/15 00:12:38;;;;;;;4.30;3.10;;;;;;;11.01;75.27;100794.14;102128;1117;67128;-64
2021/06/15 00:14:46;;;;;;;4.90;3.50;;;;;;;10.98;75.35;100787.24;102171;1118;69189;-67
2021/06/15 00:16:54;;;;;;;5.00;3.50;;;;;;;11.00;75.50;100796.00;102138;1118;85961;-66
2021/06/15 00:19:02;;;;;;;5.30;3.80;;;;;;;11.03;75.45;100787.53;102153;1117;74614;-65
2021/06/15 00:21:13;;;;;;;6.00;3.50;;;;;;;11.05;75.51;100792.73;102135;1118;81076;-65
2021/06/15 00:23:20;;;;;;;5.40;3.50;;;;;;;11.03;75.94;100790.23;102145;1117;65521;-65
2021/06/15 00:25:28;;;;;;;5.50;3.70;;;;;;;11.02;75.62;100785.84;102141;1117;68528;-64
2021/06/15 00:27:36;;;;;;;6.20;3.70;;;;;;;11.02;75.70;100780.43;102144;1117;85104;-64
2021/06/15 00:29:44;;;;;;;5.80;3.50;;;;;;;11.03;75.56;100789.39;102129;1118;73802;-66
2021/06/15 00:31:54;;;;;;;6.10;3.40;;;;;;;10.93;75.87;100789.63;102136;1118;80259;-66
2021/06/15 00:34:02;;;;;;;6.70;3.70;;;;;;;10.96;75.86;100780.34;102127;1117;66942;-64
2021/06/15 00:36:11;;;;;;;7.70;4.10;;;;;;;10.95;76.09;100781.34;102169;1118;69088;-64
2021/06/15 00:38:21;;;;;;;4.60;3.80;;;;;;;10.95;76.15;100784.90;102149;1117;85963;-66
2021/06/15 00:40:29;;;;;;;5.90;4.10;;;;;;;10.97;76.06;100782.84;102161;1118;74948;-66
2021/06/15 00:42:37;;;;;;;4.80;3.60;;;;;;;10.97;76.02;100792.81;102167;1118;80929;-66
2021/06/15 00:44:44;;;;;;;10.10;4.50;;;;;;;10.91;76.09;100777.31;102118;1117;65969;-65
2021/06/15 00:46:55;;;;;;;8.50;4.30;;;;;;;10.85;76.05;100786.17;102149;1118;68855;-66
2021/06/15 00:49:03;;;;;;;6.10;4.30;;;;;;;10.81;76.15;100784.84;102128;1118;84999;-66
2021/06/15 00:51:11;;;;;;;7.10;4.20;;;;;;;10.80;76.00;100783.15;102173;1117;75743;-66
2021/06/15 00:53:19;;;;;;;7.70;4.30;;;;;;;10.76;76.11;100771.89;102167;1117;81559;-66
2021/06/15 00:55:27;;;;;;;6.50;4.50;;;;;;;10.71;76.15;100778.86;102153;1118;67246;-66
2021/06/15 00:57:38;;;;;;;6.00;4.60;;;;;;;10.68;76.09;100780.06;102136;1117;69395;-66
2021/06/15 00:59:49;;;;;;;4.90;3.90;;;;;;;10.64;76.36;100776.87;102180;1117;84570;-64
2021/06/15 01:01:57;;;;;;;5.70;4.60;;;;;;;10.64;76.12;100776.02;102175;1117;74460;-64
2021/06/15 01:04:05;;;;;;;7.20;4.30;;;;;;;10.60;76.19;100772.02;102131;1117;80984;-66
2021/06/15 01:06:27;;;;;;;6.40;4.30;;;;;;;10.57;76.23;100775.08;102189;1117;66788;-66
2021/06/15 01:08:48;;;;;;;7.60;4.40;;;;;;;10.56;76.11;100779.63;102167;1117;68700;-66
2021/06/15 01:11:03;;;;;;;8.10;5.00;;;;;;;10.52;76.37;100767.49;102138;1117;86140;-66
2021/06/15 01:13:41;;;;;;;6.40;4.70;;;;;;;10.51;76.14;100767.69;102163;1117;74947;-66
2021/06/15 01:16:03;;;;;;;6.80;4.50;;;;;;;10.48;76.50;100768.04;102143;1118;81188;-66
2021/06/15 01:18:16;;;;;;;5.60;4.30;;;;;;;10.44;76.47;100756.75;102146;1116;65811;-66
2021/06/15 01:20:31;;;;;;;7.40;4.70;;;;;;;10.37;76.32;100765.75;102138;1118;69589;-66
2021/06/15 01:23:18;;;;;;;6.80;4.50;;;;;;;10.35;76.51;100757.84;102167;1118;84715;-65
2021/06/15 01:25:40;;;;;;;8.30;4.20;;;;;;;10.40;76.64;100762.70;102192;1117;75640;-66
2021/06/15 01:27:53;;;;;;;6.80;4.50;;;;;;;10.39;76.50;100763.70;102148;1118;80979;-65
2021/06/15 01:30:04;;;;;;;5.90;4.70;;;;;;;10.39;77.05;100759.16;102180;1117;67222;-65
2021/06/15 01:32:24;;;;;;;7.80;5.00;;;;;;;10.35;76.79;100757.00;102158;1117;69701;-66
2021/06/15 01:34:38;;;;;;;8.50;4.70;;;;;;;10.38;76.98;100760.16;102134;1118;86008;-65
2021/06/15 01:36:51;;;;;;;;;;;;;;;10.39;77.14;100761.00;102179;1118;75849;-67
2021/06/15 01:39:13;;;;;;;7.60;5.70;;;;;;;10.36;76.98;100773.02;102169;1118;81529;-66
2021/06/15 01:41:31;;;;;;;8.10;4.70;;;;;;;10.37;76.98;100765.75;102168;1118;66427;-66
2021/06/15 01:43:43;;;;;;;6.60;4.40;;;;;;;10.37;77.40;100765.75;102142;1118;69980;-66
2021/06/15 01:45:56;;;;;;;7.50;4.70;;;;;;;10.37;76.81;100763.05;102162;1117;85936;-66
2021/06/15 01:48:17;;;;;;;7.50;5.50;;;;;;;10.36;76.93;100764.06;102164;1118;74884;-66
2021/06/15 01:50:31;;;;;;;7.50;5.30;;;;;;;10.36;76.96;100769.47;102154;1118;81876;-66
2021/06/15 01:52:42;;;;;;;8.60;5.90;;;;;;;10.30;77.15;100770.20;102129;1118;66713;-66
2021/06/15 01:54:50;;;;;;;7.60;5.90;;;;;;;10.21;77.14;100768.56;102172;1117;67681;-65
2021/06/15 01:56:59;;;;;;;6.90;4.90;;;;;;;10.18;77.21;100766.22;102131;1117;85497;-65
2021/06/15 01:59:13;;;;;;;7.50;5.20;;;;;;;10.18;77.17;100774.31;102122;1118;75224;-66
2021/06/15 02:01:23;;;;;;;7.10;5.20;;;;;;;10.18;77.29;100768.91;102135;1117;81563;-66
2021/06/15 02:03:35;;;;;;;7.50;5.20;;;;;;;10.21;77.28;100771.27;102157;1117;65999;-66
2021/06/15 02:05:47;;;;;;;8.90;5.70;;;;;;;10.19;77.24;100778.70;102135;1118;69746;-66
2021/06/15 02:08:06;;;;;;;11.00;6.20;;;;;;;10.09;77.57;100778.88;102147;1117;84317;-66
2021/06/15 02:10:18;;;;;;;8.20;5.60;;;;;;;10.04;77.26;100779.42;102176;1118;75170;-66
2021/06/15 02:12:32;;;;;;;8.00;5.60;;;;;;;10.04;77.30;100773.17;102166;1117;80928;-66
2021/06/15 02:14:41;;;;;;;8.90;5.20;;;;;;;10.04;77.50;100771.32;102165;1118;65271;-65
2021/06/15 02:16:50;;;;;;;8.60;6.30;;;;;;;10.03;77.53;100774.18;102174;1117;68585;-64
2021/06/15 02:19:01;;;;;;;7.70;5.30;;;;;;;10.04;77.46;100775.88;102148;1118;84130;-64
2021/06/15 02:21:12;;;;;;;6.70;5.40;;;;;;;10.00;77.54;100774.53;102134;1117;75065;-64
2021/06/15 02:23:25;;;;;;;9.50;5.60;;;;;;;10.04;77.59;100773.17;102100;1118;81054;-64
2021/06/15 02:25:39;;;;;;;9.00;5.60;;;;;;;10.06;77.73;100784.63;102141;1117;66701;-64
2021/06/15 02:27:48;;;;;;;9.10;5.80;;;;;;;10.07;77.70;100775.52;102134;1117;67977;-65
2021/06/15 02:29:57;;;;;;;6.70;5.40;;;;;;;10.09;77.64;100773.48;102141;1117;85699;-65
2021/06/15 02:32:09;;;;;;;6.40;5.50;;;;;;;10.13;77.91;100774.02;102127;1118;75058;-64
2021/06/15 02:34:19;;;;;;;8.70;5.30;;;;;;;10.14;77.83;100770.27;102129;1117;81021;-66
2021/06/15 02:36:32;;;;;;;7.60;5.20;;;;;;;10.15;77.92;100769.27;102147;1117;67853;-66
2021/06/15 02:38:48;;;;;;;7.00;5.00;;;;;;;10.17;78.04;100775.31;102091;1118;68886;-64
2021/06/15 02:41:05;;;;;;;8.20;5.30;;;;;;;10.16;77.80;100771.80;102158;1118;84612;-65
2021/06/15 02:43:15;;;;;;;7.60;4.90;;;;;;;10.18;77.65;100777.02;102141;1118;74776;-64
2021/06/15 02:45:26;;;;;;;6.80;5.10;;;;;;;10.22;77.93;100784.57;102152;1117;80420;-64
2021/06/15 02:47:38;;;;;;;7.00;5.20;;;;;;;10.29;77.85;100785.56;102119;1118;68127;-64
2021/06/15 02:49:55;;;;;;;6.50;5.20;;;;;;;10.39;77.81;100779.91;102166;1117;69345;-65
2021/06/15 02:52:14;;;;;;;6.80;5.40;;;;;;;10.47;77.92;100788.80;102132;1117;84625;-64
2021/06/15 02:54:27;;;;;;;7.00;5.20;;;;;;;10.51;77.79;100783.89;102175;1118;74683;-66
2021/06/15 02:56:36;;;;;;;;;;;;;;;10.52;77.94;100785.59;102130;1118;81973;-66
2021/06/15 02:58:45;;;;;;;7.00;5.00;;;;;;;10.51;77.82;100789.30;102123;1117;69503;-66
2021/06/15 03:00:52;;;;;;;7.90;5.60;;;;;;;10.57;77.71;100786.73;102171;1118;68961;-66
2021/06/15 03:03:02;;;;;;;7.10;5.60;;;;;;;10.65;77.95;100785.82;102136;1118;85222;-65
2021/06/15 03:05:17;;;;;;;7.90;6.20;;;;;;;10.72;77.96;100785.92;102151;1118;76133;-66
2021/06/15 03:07:25;;;;;;;6.60;5.50;;;;;;;10.77;77.89;100795.16;102170;1118;81666;-66
2021/06/15 03:09:33;;;;;;;7.90;5.70;;;;;;;10.85;77.97;100792.39;102139;1117;67629;-64
2021/06/15 03:11:48;;;;;;;10.70;5.80;;;;;;;10.93;78.00;100795.03;102154;1118;68994;-64
2021/06/15 03:14:03;;;;;;;7.30;5.70;;;;;;;11.04;78.05;100797.30;102165;1118;84931;-64
2021/06/15 03:16:15;;;;;;;8.50;6.30;;;;;;;11.14;78.16;100792.50;102136;1118;74687;-64
2021/06/15 03:18:32;;;;;;;8.40;5.70;;;;;;;11.21;78.09;100792.58;102124;1118;81102;-65
2021/06/15 03:20:41;;;;;;;6.70;5.30;;;;;;;11.33;78.22;100790.28;102126;1117;68791;-64
2021/06/15 03:22:58;;;;;;;9.90;5.50;;;;;;;11.46;78.17;100791.31;102169;1117;69060;-64
2021/06/15 03:25:10;;;;;;;7.90;5.70;;;;;;;11.63;78.22;100795.53;102168;1118;85605;-66
2021/06/15 03:27:30;;;;;;;7.30;6.00;;;;;;;12.35;78.14;100787.53;102185;1117;73859;-66
2021/06/15 03:29:41;;;;;;;7.20;5.10;;;;;;;13.23;77.41;100788.00;102112;1118;81640;-66
2021/06/15 03:31:53;;;;;;;6.80;5.10;;;;;;;14.51;76.69;100789.09;102138;1117;67975;-66
2021/06/15 03:34:05;;;;;;;6.30;5.00;;;;;;;15.84;75.43;100791.63;102161;1118;68424;-66
2021/06/15 03:36:17;;;;;;;5.90;4.90;;;;;;;16.90;74.21;100776.42;102171;1118;85727;-66
2021/06/15 03:38:34;;;;;;;7.00;4.90;;;;;;;17.89;72.63;100777.20;102176;1118;74978;-67
2021/06/15 03:40:46;;;;;;;6.80;5.00;;;;;;;18.66;71.18;100781.06;102149;1118;82217;-66
2021/06/15 03:42:57;;;;;;;7.20;4.50;;;;;;;19.38;69.70;100782.67;102177;1117;65456;-66
2021/06/15 03:45:11;;;;;;;9.30;4.20;;;;;;;20.13;68.15;100786.30;102192;1117;68116;-66
2021/06/15 03:47:21;;;;;;;6.60;4.60;;;;;;;20.76;66.54;100777.98;102184;1118;85121;-66
2021/06/15 03:49:32;;;;;;;4.90;3.70;;;;;;;21.05;65.38;100779.59;102133;1118;75260;-65
2021/06/15 03:51:56;;;;;;;6.30;4.30;;;;;;;21.52;64.75;100785.61;102165;1118;81462;-65
2021/06/15 03:54:08;;;;;;;4.90;3.60;;;;;;;22.06;63.44;100788.59;102148;1118;66458;-67
2021/06/15 03:56:18;;;;;;;5.50;4.10;;;;;;;22.68;62.40;100784.44;102183;1117;67563;-67
2021/06/15 03:58:31;;;;;;;7.60;3.60;;;;;;;23.06;60.77;100779.83;102159;1118;84723;-68
2021/06/15 04:00:39;;;;;;;;;;;;;;;23.57;59.16;100787.43;102170;1117;75188;-67
2021/06/15 04:02:53;;;;;;;5.70;3.90;;;;;;;23.86;58.13;100783.22;102144;1117;82496;-67
2021/06/15 04:05:04;;;;;;;7.60;4.00;;;;;;;24.26;57.16;100782.61;102205;1117;65687;-68
2021/06/15 04:07:14;;;;;;;5.40;4.00;;;;;;;24.59;56.30;100773.88;102176;1118;69342;-68
2021/06/15 04:09:26;;;;;;;4.80;4.00;;;;;;;24.94;55.07;100781.42;102191;1118;85919;-67
2021/06/15 04:11:38;;;;;;;6.50;4.40;;;;;;;25.26;53.63;100780.34;102156;1118;75404;-67
2021/06/15 04:13:50;;;;;;;8.90;4.50;;;;;;;25.68;52.13;100775.38;102155;1117;81211;-64
2021/06/15 04:16:01;;;;;;;6.00;5.00;;;;;;;26.08;51.64;100772.47;102126;1118;66987;-66
2021/06/15 04:18:14;;;;;;;6.20;4.60;;;;;;;26.24;50.59;100778.80;102195;1117;69378;-67
2021/06/15 04:20:30;;;;;;;7.20;5.40;;;;;;;26.60;49.28;100769.20;102145;1118;85735;-68
2021/06/15 04:22:47;;;;;;;8.20;5.60;;;;;;;27.02;48.27;100777.00;102181;1118;74794;-67
2021/06/15 04:24:59;;;;;;;6.20;4.70;;;;;;;27.26;46.95;100771.53;102127;1118;81085;-68
2021/06/15 04:27:08;;;;;;;6.70;4.80;;;;;;;27.56;45.97;100773.22;102136;1118;65507;-67
2021/06/15 04:29:16;;;;;;;8.60;5.90;;;;;;;27.85;45.65;100774.88;102188;1118;69084;-63
2021/06/15 04:31:29;;;;;;;8.90;6.10;;;;;;;28.14;44.39;100774.83;102156;1118;85567;-63
2021/06/15 04:33:46;;;;;;;6.30;4.80;;;;;;;28.42;44.02;100770.31;102142;1117;75287;-63
2021/06/15 04:35:57;;;;;;;7.30;5.70;;;;;;;28.91;43.52;100773.52;102146;1117;80624;-63
2021/06/15 04:38:13;;;;;;;6.80;5.80;;;;;;;29.28;42.53;100761.55;102167;1117;66727;-63
2021/06/15 04:40:27;;;;;;;6.70;5.90;;;;;;;29.52;41.21;100767.79;102163;1117;69109;-63
2021/06/15 04:42:45;;;;;;;8.90;6.10;;;;;;;29.55;40.90;100769.97;102137;1117;87014;-64
2021/06/15 04:44:54;;;;;;;8.40;6.50;;;;;;;29.79;40.73;100764.22;102152;1117;76086;-64
2021/06/15 04:47:15;;;;;;;7.20;5.90;;;;;;;30.23;39.24;100769.20;102148;1118;81683;-64
2021/06/15 04:49:36;;;;;;;8.80;6.40;;;;;;;30.47;38.53;100764.24;102188;1118;66614;-67
2021/06/15 04:51:47;;;;;;;7.00;5.50;;;;;;;30.69;38.15;100761.51;102153;1118;69465;-68
2021/06/15 04:53:59;;;;;;;7.90;5.60;;;;;;;31.09;37.57;100767.30;102166;1118;85696;-67
2021/06/15 04:56:11;;;;;;;7.00;5.90;;;;;;;31.45;36.36;100765.26;102148;1117;74880;-67
2021/06/15 04:58:21;;;;;;;7.60;5.70;;;;;;;31.53;36.02;100768.11;102160;1117;81800;-67
2021/06/15 05:00:31;;;;;;;8.70;5.60;;;;;;;31.49;36.24;100769.08;102149;1118;65064;-67
2021/06/15 05:02:44;;;;;;;6.50;5.40;;;;;;;31.11;35.44;100773.38;102148;1118;69386;-68
2021/06/15 05:04:51;;;;;;;;;;;;;;;29.91;35.25;100774.89;102160;1118;86843;-64
2021/06/15 05:06:59;;;;;;;9.40;5.90;;;;;;;28.94;36.30;100778.48;102151;1118;74307;-64
2021/06/15 05:09:09;;;;;;;7.70;6.60;;;;;;;28.68;37.03;100780.80;102147;1117;81825;-64
2021/06/15 05:11:18;;;;;;;8.80;5.80;;;;;;;29.04;37.47;100785.83;102158;1118;67081;-64
2021/06/15 05:13:26;;;;;;;6.70;5.60;;;;;;;29.32;36.79;100779.27;102169;1118;69089;-64
2021/06/15 05:15:35;;;;;;;8.20;5.40;;;;;;;29.75;36.92;100788.23;102143;1117;84526;-64
2021/06/15 05:17:48;;;;;;;18.30;16.50;;;;;;;29.92;36.14;100787.66;102149;1118;75721;-63
2021/06/15 05:19:58;;;;;;;16.00;14.30;;;;;;;30.11;35.65;100785.61;102157;1117;82349;-64
2021/06/15 05:22:12;;;;;;;7.00;6.30;;;;;;;30.02;35.60;100781.91;102138;1117;66099;-64
2021/06/15 05:24:42;;;;;;;7.80;6.00;;;;;;;30.48;35.30;100785.42;102182;1117;68967;-64
2021/06/15 05:26:49;;;;;;;6.90;5.70;;;;;;;30.92;34.74;100779.98;102173;1117;85841;-65
2021/06/15 05:28:57;;;;;;;9.00;5.70;;;;;;;31.32;33.92;100786.52;102177;1118;74756;-63
2021/06/15 05:31:04;;;;;;;5.90;5.30;;;;;;;31.60;33.80;100784.42;102157;1118;81594;-62
2021/06/15 05:33:12;;;;;;;8.60;5.60;;;;;;;31.98;33.25;100784.77;102147;1117;65661;-65
2021/06/15 05:35:20;;;;;;;7.60;5.80;;;;;;;32.02;32.96;100783.85;102163;1118;70432;-56
2021/06/15 05:37:28;;;;;;;7.10;5.40;;;;;;;32.17;32.48;100785.36;102176;1117;85263;-56
2021/06/15 05:39:37;;;;;;;7.40;5.60;;;;;;;32.36;32.61;100790.71;102134;1118;75378;-59
2021/06/15 05:41:45;;;;;;;8.80;6.10;;;;;;;32.93;31.59;100789.51;102181;1118;80386;-59
2021/06/15 05:43:58;;;;;;;9.00;5.40;;;;;;;33.07;31.33;100790.17;102160;1118;66345;-61
2021/06/15 05:46:06;;;;;;;6.90;5.30;;;;;;;32.46;31.47;100784.80;102173;1117;68081;-58
2021/06/15 05:48:14;;;;;;;10.80;5.50;;;;;;;32.54;31.34;100789.63;102119;1118;86873;-57
2021/06/15 05:50:22;;;;;;;7.50;5.70;;;;;;;31.98;31.18;100781.97;102184;1118;74514;-56
2021/06/15 05:52:30;;;;;;;8.40;5.50;;;;;;;31.68;32.07;100786.44;102144;1117;81334;-57
2021/06/15 05:54:40;;;;;;;7.80;5.50;;;;;;;31.73;31.27;100780.70;102149;1118;66673;-59
2021/06/15 05:56:47;;;;;;;7.20;6.10;;;;;;;31.97;31.74;100795.16;102156;1117;68356;-59
2021/06/15 05:58:55;;;;;;;7.80;5.10;;;;;;;32.44;31.08;100796.30;102126;1117;86861;-59
2021/06/15 06:01:03;;;;;;;7.00;5.40;;;;;;;33.12;30.54;100787.23;102147;1117;74696;-59
2021/06/15 06:03:17;;;;;;;6.50;5.40;;;;;;;33.78;30.53;100777.41;102142;1117;81614;-58
2021/06/15 06:08:07;;;;;;;7.00;5.50;;;;;;;33.32;29.10;100801.71;102155;1118;70496;-59
2021/06/15 06:10:15;;;;;;;5.90;4.90;;;;;;;32.21;29.87;100793.94;102137;1118;85298;-59
2021/06/15 06:12:23;;;;;;;6.80;5.20;;;;;;;31.98;30.41;100798.74;102184;1117;74733;-59
2021/06/15 06:14:31;;;;;;;9.00;5.90;;;;;;;31.68;30.61;100802.38;102127;1118;82412;-57
2021/06/15 06:16:41;;;;;;;8.00;6.10;;;;;;;31.03;31.36;100802.88;102137;1117;65703;-57
2021/06/15 06:18:49;;;;;;;8.30;5.50;;;;;;;31.63;31.62;100794.13;102180;1118;69471;-56
2021/06/15 06:20:57;;;;;;;8.30;5.50;;;;;;;32.35;31.06;100805.83;102170;1118;86667;-56
2021/06/15 06:23:06;;;;;;;8.40;5.30;;;;;;;32.21;30.21;100796.73;102134;1118;73440;-59
2021/06/15 06:25:17;;;;;;;8.50;6.00;;;;;;;31.40;31.28;100796.91;102124;1117;81514;-59
2021/06/15 06:27:24;;;;;;;6.20;4.60;;;;;;;30.29;31.91;100793.89;102144;1117;65295;-61
2021/06/15 06:29:32;;;;;;;9.60;5.50;;;;;;;29.73;32.73;100794.13;102173;1118;69542;-59
2021/06/15 06:31:40;;;;;;;7.40;5.60;;;;;;;29.29;33.08;100799.36;102145;1118;86850;-59
2021/06/15 06:33:47;;;;;;;7.30;5.10;;;;;;;29.47;34.15;100790.16;102172;1118;74091;-56
2021/06/15 06:35:55;;;;;;;8.70;5.60;;;;;;;30.73;33.47;100796.02;102135;1117;81776;-56
2021/06/15 06:38:04;;;;;;;8.50;5.90;;;;;;;31.18;33.25;100793.32;102123;1117;67712;-58
2021/06/15 06:40:15;;;;;;;6.80;5.10;;;;;;;31.02;32.75;100794.80;102169;1118;68637;-58
2021/06/15 06:42:26;;;;;;;7.80;5.20;;;;;;;30.61;32.91;100801.30;102168;1117;85969;-58
2021/06/15 06:44:33;;;;;;;7.80;5.20;;;;;;;30.47;32.83;100802.45;102177;1117;74189;-59
2021/06/15 06:46:41;;;;;;;9.00;5.70;;;;;;;30.87;33.06;100794.02;102131;1118;81721;-59
2021/06/15 06:48:49;;;;;;;8.90;5.90;;;;;;;31.80;31.88;100794.23;102155;1118;66340;-57
2021/06/15 06:50:56;;;;;;;6.30;5.60;;;;;;;31.74;31.85;100801.09;102145;1118;68258;-57
2021/06/15 06:53:04;;;;;;;6.40;5.70;;;;;;;32.06;31.20;100798.81;102137;1118;86332;-59
2021/06/15 06:55:19;;;;;;;7.40;5.20;;;;;;;32.54;31.06;100807.23;102145;1118;74787;-60
2021/06/15 06:57:27;;;;;;;8.90;5.90;;;;;;;32.84;30.56;100801.84;102141;1117;81706;-59
2021/06/15 06:59:35;;;;;;;7.30;5.20;;;;;;;33.54;30.62;100799.51;102152;1118;66307;-59
2021/06/15 07:01:44;;;;;;;10.50;5.70;;;;;;;34.26;29.63;100798.66;102163;1118;68188;-60
2021/06/15 07:03:51;;;;;;;8.30;5.50;;;;;;;34.71;28.84;100790.48;102117;1118;86667;-59
2021/06/15 07:05:59;;;;;;;7.90;5.30;;;;;;;35.05;28.51;100793.04;102166;1117;74821;-59
2021/06/15 07:08:08;;;;;;;9.50;5.70;;;;;;;35.42;28.24;100789.23;102144;1117;80738;-58
2021/06/15 07:10:17;;;;;;;7.60;5.10;;;;;;;35.18;27.69;100786.34;102179;1118;66402;-59
2021/06/15 07:12:24;;;;;;;8.30;6.20;;;;;;;33.91;28.99;100786.75;102196;1118;69263;-60
2021/06/15 07:14:32;;;;;;;8.00;5.50;;;;;;;33.34;28.92;100796.59;102149;1119;85376;-59
2021/06/15 07:16:40;;;;;;;6.80;5.10;;;;;;;32.55;29.41;100794.88;102179;1118;74944;-58
2021/06/15 07:18:50;;;;;;;6.50;5.80;;;;;;;32.08;29.89;100796.52;102131;1117;81022;-60
2021/06/15 07:20:58;;;;;;;7.60;5.30;;;;;;;31.33;31.02;100795.72;102135;1118;65661;-58
2021/06/15 07:23:06;;;;;;;11.60;6.30;;;;;;;30.78;32.46;100801.48;102188;1118;68317;-66
2021/06/15 07:25:16;;;;;;;8.20;5.60;;;;;;;30.65;32.50;100802.34;102181;1118;86095;-67
2021/06/15 07:27:26;;;;;;;6.70;5.20;;;;;;;30.42;32.89;100792.24;102189;1117;73914;-69
2021/06/15 07:29:34;;;;;;;8.20;5.50;;;;;;;30.05;33.72;100796.03;102171;1118;81270;-59
2021/06/15 07:31:42;;;;;;;6.50;5.70;;;;;;;29.97;33.78;100793.16;102177;1117;65048;-59
2021/06/15 07:33:52;;;;;;;7.80;5.60;;;;;;;29.88;34.63;100789.44;102158;1118;69820;-67
2021/06/15 07:36:00;;;;;;;10.00;5.50;;;;;;;29.93;34.39;100783.76;102151;1118;85399;-71
2021/06/15 07:38:10;;;;;;;5.90;5.00;;;;;;;30.15;34.55;100793.06;102171;1117;75146;-67
2021/06/15 07:40:22;;;;;;;7.20;5.70;;;;;;;30.24;33.54;100795.95;102118;1117;80439;-68
2021/06/15 07:42:30;;;;;;;7.40;5.70;;;;;;;30.27;33.64;100792.55;102139;1117;66125;-68
2021/06/15 07:44:40;;;;;;;7.50;5.30;;;;;;;30.21;33.92;100785.42;102147;1117;69448;-59
2021/06/15 07:46:48;;;;;;;7.30;5.80;;;;;;;30.75;34.18;100790.11;102170;1117;84594;-60
2021/06/15 07:48:56;;;;;;;7.50;5.50;;;;;;;31.58;33.30;100781.13;102167;1118;75206;-60
2021/06/15 07:51:04;;;;;;;7.20;5.70;;;;;;;31.91;33.13;100788.05;102130;1118;82796;-60
2021/06/15 07:53:11;;;;;;;7.50;5.70;;;;;;;32.10;32.81;100793.41;102143;1118;66676;-68
2021/06/15 07:55:21;;;;;;;6.70;5.70;;;;;;;31.94;32.51;100787.41;102164;1118;70441;-68
2021/06/15 07:57:28;;;;;;;6.80;5.00;;;;;;;32.20;32.04;100795.08;102156;1117;86831;-67
2021/06/15 07:59:36;;;;;;;7.30;5.50;;;;;;;32.05;31.45;100791.59;102143;1117;73942;-67
2021/06/15 08:01:44;;;;;;;7.30;5.70;;;;;;;31.52;31.56;100793.58;102126;1118;80873;-67
2021/06/15 08:03:52;;;;;;;8.70;6.30;;;;;;;31.20;31.97;100779.86;102145;1118;65852;-66
2021/06/15 08:06:00;;;;;;;8.30;5.20;;;;;;;30.58;33.26;100781.57;102166;1118;69893;-68
2021/06/15 08:08:08;;;;;;;8.00;5.20;;;;;;;30.38;33.72;100791.23;102157;1117;86490;-67
2021/06/15 08:10:18;;;;;;;8.00;5.90;;;;;;;29.99;34.52;100783.36;102163;1118;75348;-59
2021/06/15 08:12:26;;;;;;;7.70;6.00;;;;;;;29.60;33.88;100782.95;102128;1118;81770;-61
2021/06/15 08:14:34;;;;;;;8.10;5.40;;;;;;;29.78;34.56;100777.31;102122;1118;67666;-68
2021/06/15 08:16:42;;;;;;;7.00;5.80;;;;;;;29.64;33.77;100776.45;102151;1118;69624;-63
2021/06/15 08:18:49;;;;;;;6.80;5.50;;;;;;;29.69;34.22;100781.96;102152;1117;86303;-59
2021/06/15 08:20:57;;;;;;;6.80;4.90;;;;;;;29.93;34.55;100772.61;102163;1118;73783;-58
2021/06/15 08:23:05;;;;;;;8.50;5.80;;;;;;;30.16;34.09;100780.76;102172;1118;81162;-58
2021/06/15 08:25:14;;;;;;;6.00;5.00;;;;;;;30.15;34.59;100784.70;102141;1118;66596;-58
2021/06/15 08:27:22;;;;;;;10.20;7.00;;;;;;;30.26;33.38;100774.16;102176;1118;67816;-58
2021/06/15 08:29:31;;;;;;;7.80;5.80;;;;;;;30.28;34.35;100786.65;102156;1117;84767;-59
2021/06/15 08:31:38;;;;;;;8.00;5.60;;;;;;;30.66;34.88;100781.66;102164;1118;73855;-60
2021/06/15 08:33:46;;;;;;;11.90;5.80;;;;;;;30.85;33.39;100785.12;102118;1118;81197;-59
2021/06/15 08:35:55;;;;;;;7.60;4.80;;;;;;;31.25;33.16;100774.15;102164;1117;65239;-60
2021/06/15 08:38:03;;;;;;;7.20;4.90;;;;;;;31.43;33.38;100782.31;102169;1118;67814;-61
2021/06/15 08:40:13;;;;;;;7.60;5.80;;;;;;;32.14;31.89;100780.42;102169;1117;84868;-61
2021/06/15 08:42:21;;;;;;;6.20;5.00;;;;;;;32.67;30.77;100775.48;102162;1118;74808;-60
2021/06/15 08:44:29;;;;;;;6.90;5.50;;;;;;;33.24;29.89;100767.77;102156;1118;81508;-60
2021/06/15 08:46:38;;;;;;;8.40;5.20;;;;;;;33.74;29.73;100770.81;102168;1117;64940;-61
2021/06/15 08:48:45;;;;;;;6.50;4.80;;;;;;;34.11;29.01;100765.58;102158;1118;68416;-61
2021/06/15 08:50:53;;;;;;;7.00;5.50;;;;;;;34.53;30.08;100770.09;102144;1118;85839;-60
2021/06/15 08:53:01;;;;;;;7.50;5.50;;;;;;;34.70;28.37;100771.99;102169;1118;74795;-60
2021/06/15 08:55:12;;;;;;;8.10;5.10;;;;;;;34.58;27.50;100766.32;102151;1117;81749;-60
2021/06/15 08:57:22;;;;;;;8.00;5.40;;;;;;;34.49;26.94;100766.34;102146;1118;67049;-60
2021/06/15 08:59:30;;;;;;;5.80;4.40;;;;;;;34.77;27.29;100764.69;102190;1118;69057;-58
2021/06/15 09:01:38;;;;;;;7.20;5.20;;;;;;;35.11;27.23;100768.41;102151;1118;86043;-59
2021/06/15 09:03:50;;;;;;;7.50;4.80;;;;;;;34.86;26.64;100770.24;102178;1118;75087;-60
2021/06/15 09:05:58;;;;;;;8.50;5.10;;;;;;;34.22;27.09;100773.28;102162;1117;81564;-61
2021/06/15 09:08:12;;;;;;;10.60;5.20;;;;;;;34.34;26.13;100764.94;102162;1117;65728;-60
2021/06/15 09:10:32;;;;;;;7.20;4.40;;;;;;;33.83;27.94;100767.98;102183;1117;67750;-60
2021/06/15 09:12:40;;;;;;;6.50;4.40;;;;;;;33.57;27.54;100779.26;102152;1118;85807;-60
2021/06/15 09:14:53;;;;;;;10.50;4.80;;;;;;;33.51;27.73;100768.55;102172;1118;73725;-60
2021/06/15 09:17:01;;;;;;;5.00;4.50;;;;;;;33.50;27.62;100775.30;102156;1118;80797;-60
2021/06/15 09:19:21;;;;;;;8.40;5.10;;;;;;;33.34;28.00;100782.59;102172;1118;66433;-60
2021/06/15 09:21:43;;;;;;;7.80;4.80;;;;;;;33.04;27.59;100776.83;102171;1117;70066;-61
2021/06/15 09:23:50;;;;;;;6.30;4.10;;;;;;;32.69;28.03;100777.94;102151;1118;86880;-60
2021/06/15 09:25:58;;;;;;;6.20;5.00;;;;;;;32.32;28.46;100765.36;102166;1118;75512;-59
2021/06/15 09:28:21;;;;;;;7.40;5.00;;;;;;;32.08;29.27;100770.55;102133;1118;80945;-60
2021/06/15 09:30:31;;;;;;;8.00;4.80;;;;;;;32.02;28.72;100769.88;102156;1117;65033;-59
2021/06/15 09:32:45;;;;;;;9.70;5.30;;;;;;;31.85;28.66;100768.94;102185;1117;67959;-59
2021/06/15 09:35:00;;;;;;;7.60;5.30;;;;;;;31.54;29.63;100766.97;102141;1117;85772;-59
2021/06/15 09:37:11;;;;;;;8.30;4.90;;;;;;;31.36;30.02;100772.75;102178;1118;74212;-59
2021/06/15 09:39:22;;;;;;;7.50;5.20;;;;;;;31.31;30.15;100772.88;102123;1118;81190;-59
2021/06/15 09:41:42;;;;;;;8.20;5.00;;;;;;;31.14;29.98;100770.79;102121;1118;67599;-60
2021/06/15 09:43:55;;;;;;;7.30;5.00;;;;;;;30.61;29.61;100773.41;102146;1118;68822;-61
2021/06/15 09:46:14;;;;;;;7.00;5.60;;;;;;;30.29;30.19;100762.39;102165;1118;85638;-60
2021/06/15 09:48:29;;;;;;;6.90;4.70;;;;;;;30.39;31.54;100765.81;102179;1117;75376;-60
2021/06/15 09:50:43;;;;;;;6.90;5.00;;;;;;;30.43;30.79;100763.23;102168;1118;80676;-59
2021/06/15 09:52:53;;;;;;;6.90;4.80;;;;;;;30.39;30.85;100762.19;102131;1118;67992;-59
2021/06/15 09:55:04;;;;;;;6.70;4.60;;;;;;;30.31;31.08;100757.32;102168;1117;67529;-59
2021/06/15 09:57:19;;;;;;;8.20;5.40;;;;;;;30.39;31.53;100749.08;102153;1117;85781;-59
2021/06/15 09:59:27;;;;;;;6.70;4.40;;;;;;;30.41;31.80;100759.11;102176;1117;75271;-59
2021/06/15 10:01:36;;;;;;;8.70;4.90;;;;;;;30.36;32.03;100748.84;102124;1118;81492;-59
2021/06/15 10:03:44;;;;;;;6.50;4.50;;;;;;;30.41;30.69;100745.97;102123;1118;66442;-59
2021/06/15 10:05:52;;;;;;;6.70;5.10;;;;;;;30.52;30.59;100743.80;102178;1117;67610;-59